createdAt,value
2022-12-11T00:00:08.126Z,69.38
2022-12-11T00:02:34.885Z,69.63
2022-12-11T00:05:01.559Z,69.56
2022-12-11T00:07:28.171Z,69.91
2022-12-11T00:09:54.719Z,70.25
2022-12-11T00:12:21.365Z,70.15
2022-12-11T00:14:47.966Z,69.76
2022-12-11T00:17:14.689Z,69.76
2022-12-11T00:19:41.286Z,69.34
2022-12-11T00:22:08.311Z,69.77
2022-12-11T00:24:34.857Z,69.55
2022-12-11T00:27:01.502Z,69.44
2022-12-11T00:29:28.082Z,69.56
2022-12-11T00:31:54.726Z,69.33
2022-12-11T00:34:21.427Z,69.01
2022-12-11T00:36:48.086Z,69.38
2022-12-11T00:39:15.859Z,69.22
2022-12-11T00:41:43.563Z,69.43
2022-12-11T00:44:10.277Z,69.20
2022-12-11T00:46:36.885Z,69.18
2022-12-11T00:49:03.513Z,69.03
2022-12-11T00:51:30.078Z,69.45
2022-12-11T00:53:56.731Z,69.97
2022-12-11T00:56:23.566Z,69.70
2022-12-11T00:58:50.196Z,69.72
2022-12-11T01:01:23.278Z,69.19
2022-12-11T01:03:52.484Z,68.91
2022-12-11T01:06:22.050Z,69.15
2022-12-11T01:09:09.236Z,69.01
2022-12-11T01:11:36.105Z,69.58
2022-12-11T01:14:02.762Z,69.60
2022-12-11T01:16:29.584Z,69.39
2022-12-11T01:18:57.248Z,69.75
2022-12-11T01:21:24.085Z,70.22
2022-12-11T01:23:51.531Z,69.88
2022-12-11T01:26:18.631Z,69.89
2022-12-11T01:28:45.245Z,69.67
2022-12-11T01:31:14.339Z,69.25
2022-12-11T01:33:41.286Z,69.35
2022-12-11T01:36:10.873Z,69.55
2022-12-11T01:38:37.769Z,69.97
2022-12-11T01:41:04.413Z,69.72
2022-12-11T01:43:31.328Z,69.50
2022-12-11T01:45:58.021Z,70.20
2022-12-11T01:48:28.595Z,69.68
2022-12-11T01:50:58.021Z,69.50
2022-12-11T01:53:33.387Z,69.54
2022-12-11T01:56:00.894Z,69.67
2022-12-11T01:58:42.010Z,69.64
2022-12-11T02:01:14.979Z,69.70
2022-12-11T02:03:41.617Z,69.96
2022-12-11T02:06:31.126Z,70.09
2022-12-11T02:08:57.946Z,70.51
2022-12-11T02:11:34.172Z,70.22
2022-12-11T02:14:24.796Z,70.37
2022-12-11T02:16:59.237Z,70.05
2022-12-11T02:19:43.745Z,70.08
2022-12-11T02:22:18.016Z,69.70
2022-12-11T02:25:04.337Z,69.88
2022-12-11T02:27:45.885Z,69.88
2022-12-11T02:30:16.086Z,70.41
2022-12-11T02:32:53.513Z,70.34
2022-12-11T02:35:28.425Z,70.47
2022-12-11T02:38:00.609Z,70.64
2022-12-11T02:40:31.561Z,70.54
2022-12-11T02:43:02.579Z,70.61
2022-12-11T02:45:30.249Z,70.98
2022-12-11T02:47:59.950Z,71.44
2022-12-11T02:50:28.439Z,71.60
2022-12-11T02:52:57.553Z,71.54
2022-12-11T02:55:27.534Z,71.94
2022-12-11T02:58:02.000Z,71.66
2022-12-11T03:00:28.576Z,71.59
2022-12-11T03:02:55.427Z,71.71
2022-12-11T03:05:22.002Z,72.08
2022-12-11T03:07:49.421Z,72.11
2022-12-11T03:10:19.005Z,72.22
2022-12-11T03:12:53.419Z,72.12
2022-12-11T03:15:24.024Z,72.29
2022-12-11T03:18:01.307Z,71.66
2022-12-11T03:20:41.076Z,72.44
2022-12-11T03:23:11.877Z,71.79
2022-12-11T03:25:59.259Z,71.78
2022-12-11T03:28:42.230Z,71.81
2022-12-11T03:31:14.576Z,72.00
2022-12-11T03:33:45.993Z,72.29
2022-12-11T03:36:19.056Z,72.78
2022-12-11T03:38:56.554Z,72.64
2022-12-11T03:41:26.191Z,72.56
2022-12-11T03:43:56.570Z,72.88
2022-12-11T03:46:29.905Z,73.26
2022-12-11T03:49:01.737Z,73.41
2022-12-11T03:51:31.461Z,73.00
2022-12-11T03:53:59.766Z,73.20
2022-12-11T03:56:29.279Z,73.33
2022-12-11T03:58:55.961Z,73.04
2022-12-11T04:01:22.641Z,73.04
2022-12-11T04:03:49.385Z,72.94
2022-12-11T04:06:16.002Z,72.82
2022-12-11T04:08:42.547Z,73.27
2022-12-11T04:11:28.619Z,72.86
2022-12-11T04:14:13.875Z,73.32
2022-12-11T04:16:40.433Z,73.05
2022-12-11T04:19:25.641Z,73.35
2022-12-11T04:22:10.661Z,73.24
2022-12-11T04:24:37.240Z,73.82
2022-12-11T04:27:03.802Z,73.55
2022-12-11T04:29:30.324Z,74.05
2022-12-11T04:31:57.127Z,73.88
2022-12-11T04:34:23.700Z,74.16
2022-12-11T04:36:50.723Z,74.43
2022-12-11T04:39:17.323Z,74.15
2022-12-11T04:41:44.063Z,74.35
2022-12-11T04:44:10.639Z,73.80
2022-12-11T04:46:37.199Z,74.77
2022-12-11T04:49:03.880Z,74.69
2022-12-11T04:51:30.792Z,74.57
2022-12-11T04:53:58.705Z,74.88
2022-12-11T04:56:25.254Z,75.42
2022-12-11T04:58:51.879Z,75.12
2022-12-11T05:01:23.265Z,75.19
2022-12-11T05:03:49.925Z,75.26
2022-12-11T05:06:16.716Z,74.96
2022-12-11T05:08:43.947Z,74.90
2022-12-11T05:11:14.075Z,74.86
2022-12-11T05:13:40.857Z,75.30
2022-12-11T05:16:10.227Z,75.11
2022-12-11T05:18:37.417Z,75.37
2022-12-11T05:21:07.249Z,75.23
2022-12-11T05:23:34.256Z,75.45
2022-12-11T05:26:04.117Z,75.25
2022-12-11T05:28:33.169Z,75.37
2022-12-11T05:31:02.534Z,74.97
2022-12-11T05:33:29.733Z,74.82
2022-12-11T05:35:56.677Z,75.12
2022-12-11T05:38:23.971Z,75.13
2022-12-11T05:41:05.877Z,75.21
2022-12-11T05:43:35.655Z,74.88
2022-12-11T05:46:09.702Z,75.25
2022-12-11T05:48:37.245Z,75.22
2022-12-11T05:51:04.673Z,75.26
2022-12-11T05:53:31.633Z,75.44
2022-12-11T05:56:07.026Z,75.32
2022-12-11T05:58:34.657Z,75.66
2022-12-11T06:01:01.676Z,75.53
2022-12-11T06:03:28.290Z,75.69
2022-12-11T06:05:54.884Z,75.45
2022-12-11T06:08:21.507Z,75.63
2022-12-11T06:10:49.406Z,74.99
2022-12-11T06:13:16.781Z,75.07
2022-12-11T06:15:43.476Z,75.10
2022-12-11T06:18:10.720Z,75.24
2022-12-11T06:20:37.649Z,74.88
2022-12-11T06:23:04.209Z,74.76
2022-12-11T06:25:31.442Z,74.33
2022-12-11T06:27:59.212Z,74.71
2022-12-11T06:30:37.522Z,74.93
2022-12-11T06:33:06.670Z,74.31
2022-12-11T06:35:38.730Z,74.90
2022-12-11T06:38:08.771Z,74.93
2022-12-11T06:40:35.460Z,74.66
2022-12-11T06:43:02.042Z,74.65
2022-12-11T06:45:28.672Z,74.90
2022-12-11T06:47:55.662Z,75.17
2022-12-11T06:50:22.226Z,74.69
2022-12-11T06:52:48.807Z,75.04
2022-12-11T06:55:15.502Z,74.97
2022-12-11T06:57:42.140Z,74.30
2022-12-11T07:00:09.483Z,74.48
2022-12-11T07:02:36.073Z,74.55
2022-12-11T07:05:03.173Z,74.53
2022-12-11T07:07:30.286Z,74.22
2022-12-11T07:09:56.859Z,74.05
2022-12-11T07:12:23.563Z,74.33
2022-12-11T07:14:50.104Z,74.01
2022-12-11T07:17:16.720Z,74.08
2022-12-11T07:19:43.274Z,73.91
2022-12-11T07:22:10.012Z,74.32
2022-12-11T07:24:36.684Z,74.27
2022-12-11T07:27:04.232Z,74.13
2022-12-11T07:29:30.755Z,73.83
2022-12-11T07:31:57.397Z,74.36
2022-12-11T07:34:24.066Z,74.07
2022-12-11T07:36:50.618Z,74.50
2022-12-11T07:39:17.270Z,74.27
2022-12-11T07:41:43.806Z,74.38
2022-12-11T07:44:10.931Z,73.90
2022-12-11T07:46:37.718Z,74.33
2022-12-11T07:49:06.351Z,74.53
2022-12-11T07:51:35.979Z,74.51
2022-12-11T07:54:08.587Z,74.74
2022-12-11T07:56:35.274Z,74.88
2022-12-11T07:59:03.784Z,74.64
2022-12-11T08:01:33.413Z,75.17
2022-12-11T08:04:00.466Z,74.91
2022-12-11T08:06:32.359Z,74.62
2022-12-11T08:09:00.283Z,75.09
2022-12-11T08:11:27.990Z,75.06
2022-12-11T08:13:55.211Z,75.37
2022-12-11T08:16:22.424Z,74.83
2022-12-11T08:18:49.332Z,75.62
2022-12-11T08:21:18.896Z,75.70
2022-12-11T08:23:46.055Z,75.81
2022-12-11T08:26:21.833Z,75.73
2022-12-11T08:28:48.407Z,76.45
2022-12-11T08:31:15.905Z,76.66
2022-12-11T08:33:42.677Z,77.34
2022-12-11T08:36:11.742Z,77.58
2022-12-11T08:38:38.995Z,77.69
2022-12-11T08:41:09.808Z,77.71
2022-12-11T08:43:36.302Z,77.82
2022-12-11T08:46:02.954Z,78.11
2022-12-11T08:48:29.675Z,78.24
2022-12-11T08:51:00.301Z,78.66
2022-12-11T08:53:28.742Z,78.19
2022-12-11T08:56:00.309Z,78.17
2022-12-11T08:58:26.963Z,77.70
2022-12-11T09:00:53.580Z,77.88
2022-12-11T09:03:20.044Z,78.20
2022-12-11T09:05:46.604Z,78.55
2022-12-11T09:08:13.123Z,79.00
2022-12-11T09:10:39.723Z,78.82
2022-12-11T09:13:06.316Z,79.54
2022-12-11T09:15:32.789Z,79.58
2022-12-11T09:17:59.333Z,78.81
2022-12-11T09:20:25.843Z,78.63
2022-12-11T09:22:52.289Z,78.18
2022-12-11T09:25:19.144Z,77.70
2022-12-11T09:27:45.633Z,77.67
2022-12-11T09:30:12.790Z,77.81
2022-12-11T09:32:39.590Z,77.71
2022-12-11T09:35:06.821Z,77.01
2022-12-11T09:37:34.399Z,77.54
2022-12-11T09:40:07.059Z,77.23
2022-12-11T09:42:45.395Z,77.28
2022-12-11T09:45:16.009Z,76.97
2022-12-11T09:47:50.072Z,77.08
2022-12-11T09:50:25.161Z,76.87
2022-12-11T09:53:11.474Z,76.83
2022-12-11T09:56:15.845Z,76.88
2022-12-11T09:59:04.192Z,77.25
2022-12-11T10:02:03.422Z,76.72
2022-12-11T10:04:59.211Z,76.43
2022-12-11T10:07:34.625Z,76.80
2022-12-11T10:10:33.785Z,76.05
2022-12-11T10:13:38.034Z,76.08
2022-12-11T10:16:07.586Z,76.15
2022-12-11T10:18:34.603Z,75.73
2022-12-11T10:21:02.858Z,75.41
2022-12-11T10:23:36.127Z,75.38
2022-12-11T10:26:16.654Z,75.18
2022-12-11T10:28:43.193Z,75.21
2022-12-11T10:31:20.096Z,75.13
2022-12-11T10:33:56.618Z,74.89
2022-12-11T10:36:31.487Z,74.48
2022-12-11T10:38:58.359Z,74.33
2022-12-11T10:41:36.679Z,74.38
2022-12-11T10:44:18.064Z,74.71
2022-12-11T10:46:46.762Z,74.49
2022-12-11T10:49:28.896Z,74.71
2022-12-11T10:52:00.088Z,74.64
2022-12-11T10:54:38.468Z,74.88
2022-12-11T10:57:08.781Z,75.17
2022-12-11T10:59:45.709Z,74.73
2022-12-11T11:02:32.786Z,75.35
2022-12-11T11:05:10.545Z,75.05
2022-12-11T11:07:37.619Z,75.34
2022-12-11T11:10:16.995Z,75.13
2022-12-11T11:12:46.762Z,74.85
2022-12-11T11:15:19.524Z,74.83
2022-12-11T11:17:55.762Z,74.76
2022-12-11T11:20:26.519Z,75.02
2022-12-11T11:22:57.895Z,74.64
2022-12-11T11:25:27.510Z,74.78
2022-12-11T11:28:19.476Z,74.44
2022-12-11T11:30:57.236Z,74.78
2022-12-11T11:33:24.247Z,74.80
2022-12-11T11:36:22.098Z,74.41
2022-12-11T11:39:08.098Z,74.51
2022-12-11T11:41:49.846Z,74.55
2022-12-11T11:44:25.327Z,74.59
2022-12-11T11:47:00.705Z,73.96
2022-12-11T11:50:03.807Z,73.80
2022-12-11T11:52:45.776Z,73.96
2022-12-11T11:55:22.709Z,74.04
2022-12-11T11:58:00.873Z,74.28
2022-12-11T12:00:33.690Z,74.04
2022-12-11T12:03:29.909Z,74.22
2022-12-11T12:06:27.278Z,73.26
2022-12-11T12:08:59.857Z,73.43
2022-12-11T12:12:03.790Z,73.04
2022-12-11T12:14:52.821Z,72.44
2022-12-11T12:17:38.145Z,72.50
2022-12-11T12:20:27.365Z,72.17
2022-12-11T12:23:05.174Z,72.95
2022-12-11T12:25:31.748Z,72.55
2022-12-11T12:28:32.515Z,72.95
2022-12-11T12:31:22.633Z,72.65
2022-12-11T12:34:01.403Z,73.00
2022-12-11T12:36:38.632Z,72.48
2022-12-11T12:39:43.865Z,72.67
2022-12-11T12:42:38.166Z,72.69
2022-12-11T12:45:23.878Z,72.42
2022-12-11T12:47:53.516Z,72.55
2022-12-11T12:50:24.130Z,72.51
2022-12-11T12:52:53.294Z,72.97
2022-12-11T12:55:22.977Z,73.41
2022-12-11T12:58:00.333Z,73.19
2022-12-11T13:00:41.861Z,73.19
2022-12-11T13:03:29.244Z,72.95
2022-12-11T13:06:03.933Z,73.13
2022-12-11T13:08:52.559Z,73.05
2022-12-11T13:11:30.012Z,73.15
2022-12-11T13:14:06.431Z,73.30
2022-12-11T13:16:39.325Z,72.98
2022-12-11T13:19:39.152Z,72.54
2022-12-11T13:22:14.943Z,72.14
2022-12-11T13:24:48.180Z,72.11
2022-12-11T13:27:40.131Z,72.47
2022-12-11T13:30:08.528Z,72.25
2022-12-11T13:32:35.342Z,72.38
2022-12-11T13:35:07.209Z,72.22
2022-12-11T13:37:38.622Z,72.18
2022-12-11T13:40:27.735Z,71.95
2022-12-11T13:43:04.079Z,72.05
2022-12-11T13:45:49.583Z,71.93
2022-12-11T13:48:25.730Z,72.17
2022-12-11T13:50:54.578Z,72.48
2022-12-11T13:53:22.479Z,71.99
2022-12-11T13:56:04.949Z,72.24
2022-12-11T13:58:35.697Z,72.29
2022-12-11T14:01:16.187Z,72.53
2022-12-11T14:03:55.278Z,72.78
2022-12-11T14:06:22.946Z,72.96
2022-12-11T14:08:53.289Z,72.90
2022-12-11T14:11:29.682Z,73.20
2022-12-11T14:13:59.786Z,73.30
2022-12-11T14:16:27.651Z,73.38
2022-12-11T14:18:59.479Z,73.44
2022-12-11T14:21:26.439Z,73.62
2022-12-11T14:23:56.119Z,73.89
2022-12-11T14:26:25.567Z,74.13
2022-12-11T14:28:52.905Z,73.71
2022-12-11T14:31:30.527Z,74.06
2022-12-11T14:34:11.840Z,73.98
2022-12-11T14:36:39.340Z,73.90
2022-12-11T14:39:13.052Z,74.57
2022-12-11T14:41:55.547Z,74.38
2022-12-11T14:44:24.272Z,74.52
2022-12-11T14:46:57.512Z,74.39
2022-12-11T14:49:29.472Z,74.95
2022-12-11T14:51:58.363Z,74.89
2022-12-11T14:54:36.415Z,75.03
2022-12-11T14:57:06.575Z,75.22
2022-12-11T14:59:41.284Z,75.50
2022-12-11T15:02:33.396Z,75.43
2022-12-11T15:05:07.844Z,75.19
2022-12-11T15:07:34.539Z,75.84
2022-12-11T15:10:04.037Z,76.09
2022-12-11T15:12:31.750Z,76.26
2022-12-11T15:15:06.353Z,75.95
2022-12-11T15:17:37.204Z,75.93
2022-12-11T15:20:11.609Z,75.65
2022-12-11T15:22:43.239Z,76.12
2022-12-11T15:25:22.580Z,75.75
2022-12-11T15:28:01.951Z,75.57
2022-12-11T15:30:31.916Z,75.50
2022-12-11T15:33:10.458Z,75.43
2022-12-11T15:35:38.645Z,75.54
2022-12-11T15:38:05.598Z,75.48
2022-12-11T15:40:32.331Z,75.59
2022-12-11T15:43:02.213Z,75.19
2022-12-11T15:45:29.006Z,74.66
2022-12-11T15:47:56.192Z,74.60
2022-12-11T15:50:28.541Z,74.73
2022-12-11T15:52:56.662Z,73.86
2022-12-11T15:55:27.341Z,73.79
2022-12-11T15:58:01.081Z,73.75
2022-12-11T16:00:28.203Z,74.16
2022-12-11T16:02:55.787Z,73.78
2022-12-11T16:05:22.815Z,73.59
2022-12-11T16:07:54.706Z,73.75
2022-12-11T16:10:22.090Z,74.04
2022-12-11T16:12:48.716Z,73.12
2022-12-11T16:15:22.769Z,73.27
2022-12-11T16:17:50.365Z,73.07
2022-12-11T16:20:17.215Z,73.13
2022-12-11T16:22:43.712Z,72.90
2022-12-11T16:25:11.120Z,72.89
2022-12-11T16:27:37.914Z,72.68
2022-12-11T16:30:05.089Z,73.16
2022-12-11T16:32:31.707Z,73.12
2022-12-11T16:35:01.115Z,73.47
2022-12-11T16:37:28.235Z,73.22
2022-12-11T16:39:54.847Z,73.03
2022-12-11T16:42:21.421Z,73.00
2022-12-11T16:44:48.422Z,72.92
2022-12-11T16:47:14.969Z,72.56
2022-12-11T16:49:43.083Z,72.46
2022-12-11T16:52:09.595Z,72.58
2022-12-11T16:54:36.202Z,72.40
2022-12-11T16:57:02.705Z,72.38
2022-12-11T16:59:35.176Z,72.23
2022-12-11T17:02:03.996Z,72.26
2022-12-11T17:04:30.505Z,72.28
2022-12-11T17:06:57.004Z,72.43
2022-12-11T17:09:23.605Z,72.91
2022-12-11T17:11:50.140Z,72.88
2022-12-11T17:14:16.642Z,73.41
2022-12-11T17:16:44.401Z,73.34
2022-12-11T17:19:11.194Z,73.55
2022-12-11T17:21:37.865Z,73.70
2022-12-11T17:24:04.746Z,74.03
2022-12-11T17:26:31.280Z,74.00
2022-12-11T17:28:57.936Z,73.95
2022-12-11T17:31:24.830Z,74.20
2022-12-11T17:33:53.671Z,74.58
2022-12-11T17:36:21.714Z,74.41
2022-12-11T17:38:49.778Z,74.07
2022-12-11T17:41:20.331Z,73.51
2022-12-11T17:43:49.256Z,73.24
2022-12-11T17:46:15.889Z,73.30
2022-12-11T17:48:43.021Z,73.17
2022-12-11T17:51:12.641Z,73.55
2022-12-11T17:53:40.169Z,73.69
2022-12-11T17:56:08.205Z,73.27
2022-12-11T17:58:35.420Z,73.50
2022-12-11T18:01:07.143Z,73.71
2022-12-11T18:03:35.166Z,73.74
2022-12-11T18:06:19.920Z,73.74
2022-12-11T18:08:46.665Z,73.89
2022-12-11T18:11:16.371Z,73.62
2022-12-11T18:13:44.234Z,73.59
2022-12-11T18:16:17.344Z,74.03
2022-12-11T18:18:46.207Z,74.26
2022-12-11T18:21:19.894Z,74.08
2022-12-11T18:23:46.596Z,74.80
2022-12-11T18:26:14.702Z,74.32
2022-12-11T18:28:42.246Z,74.69
2022-12-11T18:31:09.779Z,75.03
2022-12-11T18:33:38.509Z,75.01
2022-12-11T18:36:06.110Z,75.51
2022-12-11T18:38:33.721Z,75.50
2022-12-11T18:41:09.452Z,75.65
2022-12-11T18:43:36.958Z,75.63
2022-12-11T18:46:08.730Z,75.77
2022-12-11T18:48:35.813Z,76.09
2022-12-11T18:51:08.041Z,76.38
2022-12-11T18:53:35.859Z,77.11
2022-12-11T18:56:10.721Z,76.72
2022-12-11T18:58:37.956Z,76.94
2022-12-11T19:01:10.056Z,77.46
2022-12-11T19:03:37.460Z,77.12
2022-12-11T19:06:13.501Z,77.78
2022-12-11T19:08:40.521Z,77.55
2022-12-11T19:11:08.128Z,78.12
2022-12-11T19:13:35.477Z,77.93
2022-12-11T19:16:02.737Z,78.37
2022-12-11T19:18:29.464Z,78.28
2022-12-11T19:21:04.879Z,78.43
2022-12-11T19:23:35.314Z,78.38
2022-12-11T19:26:02.555Z,78.65
2022-12-11T19:28:29.452Z,78.75
2022-12-11T19:30:56.710Z,78.68
2022-12-11T19:33:23.637Z,78.72
2022-12-11T19:35:59.850Z,78.51
2022-12-11T19:38:26.807Z,79.25
2022-12-11T19:40:54.223Z,79.39
2022-12-11T19:43:21.216Z,79.54
2022-12-11T19:45:48.392Z,79.93
2022-12-11T19:48:14.902Z,79.98
2022-12-11T19:50:41.636Z,80.38
2022-12-11T19:53:08.594Z,80.48
2022-12-11T19:55:35.374Z,80.99
2022-12-11T19:58:01.993Z,81.41
2022-12-11T20:00:28.853Z,81.33
2022-12-11T20:02:55.584Z,81.61
2022-12-11T20:05:23.362Z,81.23
2022-12-11T20:07:49.983Z,81.73
2022-12-11T20:10:16.853Z,81.73
2022-12-11T20:12:43.469Z,81.97
2022-12-11T20:15:11.532Z,81.96
2022-12-11T20:17:43.336Z,81.86
2022-12-11T20:20:11.512Z,82.87
2022-12-11T20:22:38.301Z,82.43
2022-12-11T20:25:05.215Z,82.67
2022-12-11T20:27:31.704Z,82.83
2022-12-11T20:29:58.336Z,82.81
2022-12-11T20:32:25.817Z,82.42
2022-12-11T20:34:56.416Z,82.90
2022-12-11T20:37:26.069Z,82.72
2022-12-11T20:39:52.984Z,82.92
2022-12-11T20:42:20.003Z,83.13
2022-12-11T20:44:49.214Z,83.36
2022-12-11T20:47:19.745Z,83.50
2022-12-11T20:49:48.046Z,83.67
2022-12-11T20:52:14.797Z,83.38
2022-12-11T20:54:41.731Z,83.32
2022-12-11T20:57:08.328Z,83.74
2022-12-11T20:59:35.025Z,83.70
2022-12-11T21:02:01.689Z,83.89
2022-12-11T21:04:28.509Z,83.59
2022-12-11T21:06:55.360Z,83.79
2022-12-11T21:09:25.360Z,83.58
2022-12-11T21:11:52.979Z,83.45
2022-12-11T21:14:20.180Z,83.74
2022-12-11T21:16:47.516Z,83.72
2022-12-11T21:19:20.201Z,83.83
2022-12-11T21:21:47.536Z,83.41
2022-12-11T21:24:19.114Z,83.67
2022-12-11T21:26:47.128Z,83.75
2022-12-11T21:29:15.071Z,83.71
2022-12-11T21:31:42.905Z,83.79
2022-12-11T21:34:09.571Z,83.88
2022-12-11T21:36:36.215Z,83.92
2022-12-11T21:39:04.314Z,84.06
2022-12-11T21:41:30.910Z,83.81
2022-12-11T21:46:44.586Z,83.79
2022-12-11T21:49:12.001Z,83.91
2022-12-11T21:51:46.816Z,83.99
2022-12-11T21:54:17.057Z,83.87
2022-12-11T21:56:44.516Z,83.85
2022-12-11T21:59:11.324Z,83.83
2022-12-11T22:01:41.982Z,83.78
2022-12-11T22:04:10.068Z,83.85
2022-12-11T22:06:37.368Z,84.00
2022-12-11T22:09:05.508Z,84.19
2022-12-11T22:11:33.766Z,84.31
2022-12-11T22:14:01.333Z,84.29
2022-12-11T22:16:27.939Z,84.37
2022-12-11T22:18:54.778Z,84.87
2022-12-11T22:21:21.650Z,84.85
2022-12-11T22:23:48.289Z,84.76
2022-12-11T22:26:19.256Z,84.53
2022-12-11T22:28:45.882Z,84.68
2022-12-11T22:31:17.370Z,84.81
2022-12-11T22:33:44.449Z,83.80
2022-12-11T22:36:11.459Z,84.60
2022-12-11T22:38:39.288Z,84.32
2022-12-11T22:41:18.978Z,84.46
2022-12-11T22:43:48.929Z,84.27
2022-12-11T22:46:17.980Z,83.91
2022-12-11T22:48:44.732Z,84.57
2022-12-11T22:51:11.726Z,84.40
2022-12-11T22:53:38.345Z,84.48
2022-12-11T22:56:06.232Z,84.42
2022-12-11T22:58:32.980Z,84.76
2022-12-11T23:00:59.992Z,84.61
2022-12-11T23:03:26.821Z,84.86
2022-12-11T23:05:54.801Z,84.83
2022-12-11T23:08:21.661Z,84.76
2022-12-11T23:10:50.073Z,84.93
2022-12-11T23:13:16.750Z,84.77
2022-12-11T23:15:43.381Z,85.19
2022-12-11T23:18:09.916Z,85.34
2022-12-11T23:20:36.753Z,84.92
2022-12-11T23:23:03.305Z,84.84
2022-12-11T23:25:29.960Z,84.77
2022-12-11T23:27:56.585Z,85.09
2022-12-11T23:30:23.958Z,84.99
2022-12-11T23:32:50.690Z,85.29
2022-12-11T23:35:17.371Z,85.14
2022-12-11T23:37:43.916Z,85.17
2022-12-11T23:40:11.177Z,84.75
2022-12-11T23:42:37.953Z,84.73
2022-12-11T23:45:05.021Z,84.74
2022-12-11T23:47:31.888Z,84.33
2022-12-11T23:49:58.423Z,84.75
2022-12-11T23:52:26.566Z,84.64
2022-12-11T23:54:55.324Z,84.48
2022-12-11T23:57:23.067Z,84.69
2022-12-11T23:59:49.787Z,85.04
